createdAt,value
2018-07-14T00:01:02.794Z,12.70
2018-07-14T00:03:31.083Z,12.87
2018-07-14T00:05:59.251Z,12.27
2018-07-14T00:08:27.603Z,13.67
2018-07-14T00:10:55.855Z,13.73
2018-07-14T00:13:24.676Z,13.27
2018-07-14T00:15:53.275Z,12.90
2018-07-14T00:18:21.555Z,13.67
2018-07-14T00:20:49.893Z,12.80
2018-07-14T00:23:18.056Z,12.57
2018-07-14T00:25:52.180Z,12.93
2018-07-14T00:28:20.319Z,14.87
2018-07-14T00:30:48.704Z,12.70
2018-07-14T00:33:17.051Z,12.83
2018-07-14T00:35:45.140Z,13.23
2018-07-14T00:38:13.280Z,15.20
2018-07-14T00:40:41.579Z,14.60
2018-07-14T00:43:09.812Z,12.93
2018-07-14T00:45:37.910Z,13.03
2018-07-14T00:48:07.158Z,11.97
2018-07-14T00:50:35.529Z,13.17
2018-07-14T00:53:03.800Z,13.27
2018-07-14T00:55:31.948Z,15.63
2018-07-14T00:58:00.239Z,14.40
2018-07-14T01:00:28.570Z,14.67
2018-07-14T01:02:56.736Z,15.50
2018-07-14T01:05:25.281Z,13.97
2018-07-14T01:07:53.531Z,12.30
2018-07-14T01:10:21.718Z,17.50
2018-07-14T01:12:49.805Z,17.07
2018-07-14T01:15:18.099Z,15.43
2018-07-14T01:17:46.358Z,16.00
2018-07-14T01:20:14.785Z,15.00
2018-07-14T01:22:42.897Z,16.27
2018-07-14T01:25:11.139Z,16.13
2018-07-14T01:27:39.221Z,16.33
2018-07-14T01:30:07.547Z,14.83
2018-07-14T01:32:35.695Z,15.37
2018-07-14T01:35:03.969Z,16.70
2018-07-14T01:37:32.065Z,13.80
2018-07-14T01:40:00.359Z,14.17
2018-07-14T01:42:28.525Z,14.67
2018-07-14T01:44:56.773Z,13.07
2018-07-14T01:47:25.297Z,13.40
2018-07-14T01:49:53.800Z,15.47
2018-07-14T01:52:21.955Z,15.30
2018-07-14T01:54:50.912Z,14.90
2018-07-14T01:57:19.149Z,15.77
2018-07-14T01:59:47.425Z,16.20
2018-07-14T02:02:15.643Z,15.43
2018-07-14T02:04:43.885Z,17.20
2018-07-14T02:07:12.173Z,13.80
2018-07-14T02:09:40.471Z,17.40
2018-07-14T02:12:08.921Z,16.70
2018-07-14T02:14:36.947Z,14.93
2018-07-14T02:17:05.240Z,13.97
2018-07-14T02:19:33.395Z,15.73
2018-07-14T02:22:01.672Z,15.00
2018-07-14T02:24:30.547Z,15.10
2018-07-14T02:26:58.928Z,16.10
2018-07-14T02:29:27.239Z,14.37
2018-07-14T02:31:55.612Z,16.40
2018-07-14T02:34:23.742Z,15.93
2018-07-14T02:36:52.069Z,16.33
2018-07-14T02:39:20.346Z,16.10
2018-07-14T02:41:48.686Z,16.20
2018-07-14T02:44:18.443Z,18.97
2018-07-14T02:46:46.826Z,17.20
2018-07-14T02:49:15.008Z,16.27
2018-07-14T02:51:43.470Z,17.03
2018-07-14T02:54:11.848Z,16.07
2018-07-14T02:56:40.154Z,15.67
2018-07-14T02:59:08.280Z,13.07
2018-07-14T03:01:36.368Z,15.77
2018-07-14T03:04:04.638Z,16.53
2018-07-14T03:06:32.969Z,16.73
2018-07-14T03:09:01.305Z,18.13
2018-07-14T03:11:29.596Z,15.97
2018-07-14T03:13:57.667Z,16.33
2018-07-14T03:16:26.064Z,16.67
2018-07-14T03:18:54.612Z,15.20
2018-07-14T03:21:23.398Z,15.50
2018-07-14T03:23:51.673Z,16.67
2018-07-14T03:26:19.929Z,16.07
2018-07-14T03:28:48.159Z,15.90
2018-07-14T03:31:16.413Z,16.43
2018-07-14T03:33:44.696Z,14.27
2018-07-14T03:36:12.953Z,16.53
2018-07-14T03:38:41.203Z,15.33
2018-07-14T03:41:09.481Z,15.80
2018-07-14T03:43:37.595Z,16.03
2018-07-14T03:46:06.083Z,15.07
2018-07-14T03:48:34.367Z,17.47
2018-07-14T03:51:02.659Z,15.90
2018-07-14T03:53:30.846Z,15.27
2018-07-14T03:55:58.895Z,16.77
2018-07-14T03:58:27.288Z,15.67
2018-07-14T04:00:55.410Z,14.40
2018-07-14T04:03:24.626Z,15.67
2018-07-14T04:05:52.942Z,14.70
2018-07-14T04:08:21.266Z,14.67
2018-07-14T04:10:49.427Z,13.90
2018-07-14T04:13:17.588Z,13.57
2018-07-14T04:15:45.800Z,14.57
2018-07-14T04:18:14.119Z,13.90
2018-07-14T04:20:42.265Z,13.67
2018-07-14T04:23:10.377Z,12.53
2018-07-14T04:25:38.492Z,12.43
2018-07-14T04:28:06.966Z,13.80
2018-07-14T04:30:35.106Z,13.93
2018-07-14T04:33:03.476Z,12.10
2018-07-14T04:35:31.796Z,13.83
2018-07-14T04:37:59.995Z,11.80
2018-07-14T04:40:28.852Z,12.40
2018-07-14T04:42:57.894Z,13.23
2018-07-14T04:45:26.452Z,13.50
2018-07-14T04:47:54.839Z,11.77
2018-07-14T04:50:22.970Z,12.27
2018-07-14T04:52:51.356Z,12.80
2018-07-14T04:55:19.495Z,11.70
2018-07-14T04:57:48.896Z,12.47
2018-07-14T05:00:17.819Z,11.30
2018-07-14T05:02:46.670Z,11.93
2018-07-14T05:05:15.034Z,13.13
2018-07-14T05:07:43.314Z,12.97
2018-07-14T05:10:11.624Z,10.70
2018-07-14T05:12:39.840Z,11.30
2018-07-14T05:15:08.100Z,14.50
2018-07-14T05:17:36.400Z,13.33
2018-07-14T05:20:04.527Z,13.23
2018-07-14T05:22:32.704Z,11.70
2018-07-14T05:25:00.889Z,14.37
2018-07-14T05:27:29.328Z,10.70
2018-07-14T05:29:57.644Z,9.80
2018-07-14T05:32:25.729Z,12.50
2018-07-14T05:34:54.060Z,10.57
2018-07-14T05:37:22.352Z,11.07
2018-07-14T05:39:50.739Z,10.57
2018-07-14T05:42:18.856Z,10.50
2018-07-14T05:44:47.144Z,11.93
2018-07-14T05:47:15.388Z,11.87
2018-07-14T05:49:43.612Z,11.47
2018-07-14T05:52:11.840Z,11.97
2018-07-14T05:54:39.881Z,13.07
2018-07-14T05:57:08.031Z,10.60
2018-07-14T05:59:36.390Z,12.53
2018-07-14T06:02:04.535Z,13.93
2018-07-14T06:04:32.660Z,11.37
2018-07-14T06:07:00.809Z,9.83
2018-07-14T06:09:28.992Z,11.10
2018-07-14T06:11:57.146Z,12.63
2018-07-14T06:14:25.419Z,11.50
2018-07-14T06:16:53.548Z,10.70
2018-07-14T06:19:21.756Z,10.27
2018-07-14T06:21:49.897Z,10.80
2018-07-14T06:24:19.241Z,9.57
2018-07-14T06:26:47.381Z,12.40
2018-07-14T06:29:15.707Z,10.40
2018-07-14T06:31:44.047Z,10.93
2018-07-14T06:34:12.398Z,9.43
2018-07-14T06:36:40.739Z,9.97
2018-07-14T06:39:09.714Z,13.20
2018-07-14T06:41:37.903Z,12.20
2018-07-14T06:44:07.361Z,7.57
2018-07-14T06:46:35.703Z,12.37
2018-07-14T06:49:03.929Z,10.57
2018-07-14T06:51:32.035Z,10.13
2018-07-14T06:54:00.463Z,9.07
2018-07-14T06:56:29.263Z,9.53
2018-07-14T06:58:57.952Z,12.30
2018-07-14T07:01:26.218Z,12.40
2018-07-14T07:03:54.720Z,9.60
2018-07-14T07:06:22.985Z,11.07
2018-07-14T07:08:51.980Z,7.85
2018-07-14T07:11:20.264Z,7.90
2018-07-14T07:13:48.429Z,11.80
2018-07-14T07:16:16.493Z,11.20
2018-07-14T07:18:45.379Z,8.75
2018-07-14T07:21:13.864Z,8.10
2018-07-14T07:23:42.029Z,8.63
2018-07-14T07:28:38.211Z,7.42
2018-07-14T07:31:12.478Z,8.55
2018-07-14T07:34:07.972Z,9.68
2018-07-14T07:40:53.168Z,9.48
2018-07-14T07:47:27.580Z,6.53
2018-07-14T07:50:31.762Z,8.85
2018-07-14T07:54:30.186Z,7.67
2018-07-14T07:57:00.480Z,8.88
2018-07-14T08:00:08.082Z,6.45
2018-07-14T08:02:47.290Z,7.45
2018-07-14T08:05:18.286Z,8.58
2018-07-14T08:07:47.967Z,7.50
2018-07-14T08:10:16.634Z,7.35
2018-07-14T08:12:48.919Z,8.00
2018-07-14T08:15:17.514Z,7.53
2018-07-14T08:17:46.443Z,6.97
2018-07-14T08:20:14.994Z,5.85
2018-07-14T08:22:43.429Z,6.00
2018-07-14T08:25:12.375Z,6.50
2018-07-14T08:27:40.713Z,5.10
2018-07-14T08:30:10.309Z,4.53
2018-07-14T08:32:39.079Z,4.92
2018-07-14T08:36:00.545Z,5.58
2018-07-14T08:38:38.593Z,5.10
2018-07-14T08:41:12.052Z,3.90
2018-07-14T08:44:06.772Z,4.78
2018-07-14T08:46:46.541Z,3.65
2018-07-14T08:49:33.514Z,5.08
2018-07-14T08:52:21.773Z,3.90
2018-07-14T08:57:46.559Z,3.67
2018-07-14T09:03:21.067Z,2.92
2018-07-14T09:06:01.609Z,2.75
2018-07-14T09:08:41.991Z,3.40
2018-07-14T09:11:26.382Z,2.60
2018-07-14T09:22:21.689Z,3.98
2018-07-14T09:24:54.515Z,3.20
2018-07-14T09:27:40.482Z,2.65
2018-07-14T09:30:32.302Z,2.42
2018-07-14T09:33:08.136Z,2.50
2018-07-14T09:36:01.412Z,2.60
2018-07-14T09:38:38.372Z,1.92
2018-07-14T09:41:18.542Z,2.00
2018-07-14T09:44:03.041Z,2.10
2018-07-14T09:46:38.638Z,2.40
2018-07-14T09:52:03.556Z,2.25
2018-07-14T09:54:41.446Z,1.65
2018-07-14T09:57:17.020Z,2.25
2018-07-14T09:59:50.828Z,1.62
2018-07-14T10:02:25.417Z,2.20
2018-07-14T10:04:57.400Z,2.30
2018-07-14T10:07:33.909Z,1.80
2018-07-14T10:10:08.993Z,1.77
2018-07-14T10:12:40.164Z,1.98
2018-07-14T10:15:13.867Z,2.37
2018-07-14T10:17:44.951Z,1.72
2018-07-14T10:20:16.626Z,1.80
2018-07-14T10:22:48.010Z,1.80
2018-07-14T10:25:20.618Z,1.90
2018-07-14T10:27:52.088Z,2.20
2018-07-14T10:30:21.041Z,1.90
2018-07-14T10:32:51.357Z,3.30
2018-07-14T10:35:19.825Z,2.00
2018-07-14T10:37:48.804Z,1.98
2018-07-14T10:40:18.308Z,1.90
2018-07-14T10:42:47.220Z,1.42
2018-07-14T10:45:16.742Z,1.50
2018-07-14T10:47:47.081Z,1.20
2018-07-14T10:50:17.174Z,1.30
2018-07-14T10:52:54.131Z,1.80
2018-07-14T10:55:31.108Z,1.80
2018-07-14T10:58:06.494Z,2.20
2018-07-14T11:00:37.820Z,2.15
2018-07-14T11:03:13.958Z,1.50
2018-07-14T11:05:46.027Z,1.60
2018-07-14T11:08:25.184Z,1.87
2018-07-14T11:10:54.260Z,1.80
2018-07-14T11:13:23.573Z,1.98
2018-07-14T11:15:53.111Z,1.27
2018-07-14T11:18:23.776Z,1.60
2018-07-14T11:20:53.942Z,1.57
2018-07-14T11:23:28.542Z,1.67
2018-07-14T11:26:01.017Z,1.98
2018-07-14T11:28:33.111Z,1.65
2018-07-14T11:31:04.727Z,1.65
2018-07-14T11:33:34.471Z,1.65
2018-07-14T11:36:03.709Z,2.20
2018-07-14T11:38:32.810Z,1.85
2018-07-14T11:41:02.954Z,1.62
2018-07-14T11:43:32.589Z,2.00
2018-07-14T11:46:08.959Z,1.70
2018-07-14T11:48:39.263Z,1.40
2018-07-14T11:51:08.547Z,1.90
2018-07-14T11:53:37.681Z,2.10
2018-07-14T11:56:07.171Z,2.02
2018-07-14T11:58:38.583Z,1.80
2018-07-14T12:01:08.455Z,1.80
2018-07-14T12:03:37.441Z,2.00
2018-07-14T12:06:06.124Z,2.00
2018-07-14T12:08:34.520Z,1.75
2018-07-14T12:11:02.875Z,2.60
2018-07-14T12:13:34.297Z,2.30
2018-07-14T12:16:03.051Z,2.40
2018-07-14T12:18:31.818Z,2.60
2018-07-14T12:21:00.358Z,2.10
2018-07-14T12:23:32.383Z,2.80
2018-07-14T12:26:01.845Z,2.55
2018-07-14T12:28:31.779Z,2.17
2018-07-14T12:31:04.452Z,2.40
2018-07-14T12:33:33.164Z,2.00
2018-07-14T12:36:01.776Z,2.60
2018-07-14T12:38:31.541Z,2.33
2018-07-14T12:41:00.470Z,2.08
2018-07-14T12:43:29.402Z,2.08
2018-07-14T12:45:58.512Z,2.65
2018-07-14T12:48:29.341Z,2.15
2018-07-14T12:50:58.964Z,2.17
2018-07-14T12:53:29.937Z,2.12
2018-07-14T12:56:01.035Z,2.10
2018-07-14T12:58:30.141Z,2.10
2018-07-14T13:00:59.981Z,2.60
2018-07-14T13:03:29.741Z,2.50
2018-07-14T13:06:00.677Z,2.42
2018-07-14T13:08:31.257Z,2.15
2018-07-14T13:11:02.043Z,1.98
2018-07-14T13:13:31.086Z,1.70
2018-07-14T13:16:01.726Z,2.42
2018-07-14T13:18:31.053Z,2.17
2018-07-14T13:21:03.114Z,2.22
2018-07-14T13:23:34.057Z,2.20
2018-07-14T13:26:06.311Z,2.52
2018-07-14T13:28:35.545Z,2.47
2018-07-14T13:31:04.670Z,2.70
2018-07-14T13:33:34.193Z,2.65
2018-07-14T13:36:04.412Z,2.67
2018-07-14T13:38:33.464Z,2.50
2018-07-14T13:41:02.885Z,2.45
2018-07-14T13:43:31.586Z,3.90
2018-07-14T13:46:00.366Z,2.92
2018-07-14T13:48:32.580Z,2.50
2018-07-14T13:51:10.446Z,2.60
2018-07-14T13:53:53.258Z,4.40
2018-07-14T13:56:45.725Z,4.67
2018-07-14T13:59:18.557Z,2.83
2018-07-14T14:01:49.349Z,2.77
2018-07-14T14:04:27.480Z,2.62
2018-07-14T14:07:10.588Z,2.80
2018-07-14T14:09:48.654Z,2.85
2018-07-14T14:12:26.116Z,3.33
2018-07-14T14:15:08.782Z,3.60
2018-07-14T14:17:48.952Z,3.90
2018-07-14T14:26:37.695Z,3.27
2018-07-14T14:31:59.769Z,4.03
2018-07-14T14:34:33.650Z,3.50
2018-07-14T14:37:22.318Z,3.30
2018-07-14T14:42:53.363Z,4.40
2018-07-14T14:45:45.134Z,3.70
2018-07-14T14:48:13.768Z,4.20
2018-07-14T14:50:47.896Z,3.43
2018-07-14T14:53:17.266Z,4.00
2018-07-14T14:55:47.284Z,4.37
2018-07-14T14:58:16.035Z,4.10
2018-07-14T15:00:52.055Z,5.53
2018-07-14T15:03:36.468Z,4.10
2018-07-14T15:06:12.033Z,4.40
2018-07-14T15:09:03.750Z,3.70
2018-07-14T15:25:10.547Z,5.20
2018-07-14T15:28:37.972Z,4.80
2018-07-14T15:35:40.432Z,4.70
2018-07-14T15:38:27.720Z,4.90
2018-07-14T15:41:09.167Z,5.17
2018-07-14T15:43:48.873Z,5.43
2018-07-14T15:46:20.045Z,5.30
2018-07-14T15:48:55.950Z,5.10
2018-07-14T16:01:33.010Z,5.57
2018-07-14T16:10:49.535Z,5.47
2018-07-14T16:13:28.774Z,5.47
2018-07-14T16:16:13.797Z,6.00
2018-07-14T16:18:52.792Z,4.60
2018-07-14T16:21:40.665Z,4.50
2018-07-14T16:24:15.881Z,4.77
2018-07-14T16:27:00.501Z,5.40
2018-07-14T16:29:41.236Z,5.00
2018-07-14T16:32:17.312Z,5.10
2018-07-14T16:35:21.012Z,5.37
2018-07-14T16:37:55.066Z,6.67
2018-07-14T16:40:26.224Z,6.00
2018-07-14T16:46:36.945Z,7.20
2018-07-14T16:49:11.664Z,7.63
2018-07-14T16:51:52.287Z,6.57
2018-07-14T16:54:39.977Z,7.13
2018-07-14T16:57:13.295Z,8.10
2018-07-14T16:59:44.836Z,7.60
2018-07-14T17:02:34.185Z,7.60
2018-07-14T17:05:16.441Z,10.50
2018-07-14T17:08:02.010Z,10.40
2018-07-14T17:10:36.063Z,11.07
2018-07-14T17:16:10.894Z,9.60
2018-07-14T17:26:53.357Z,7.97
2018-07-14T17:29:33.843Z,6.73
2018-07-14T17:34:48.568Z,6.93
2018-07-14T17:37:39.495Z,6.47
2018-07-14T17:40:17.926Z,5.50
2018-07-14T17:42:50.955Z,6.60
2018-07-14T17:48:29.719Z,5.30
2018-07-14T17:51:07.239Z,5.77
2018-07-14T17:54:03.148Z,5.87
2018-07-14T17:56:39.790Z,6.00
2018-07-14T17:59:58.829Z,5.90
2018-07-14T18:02:28.973Z,7.10
2018-07-14T18:05:24.486Z,6.33
2018-07-14T18:08:03.780Z,6.43
2018-07-14T18:13:42.827Z,9.57
2018-07-14T18:16:36.667Z,6.43
2018-07-14T18:22:18.926Z,5.30
2018-07-14T18:29:29.053Z,5.67
2018-07-14T18:32:08.086Z,5.07
2018-07-14T18:34:58.708Z,6.70
2018-07-14T18:40:44.893Z,4.77
2018-07-14T18:43:29.033Z,5.23
2018-07-14T18:46:14.379Z,5.37
2018-07-14T18:48:49.181Z,5.40
2018-07-14T18:51:24.137Z,5.27
2018-07-14T18:54:11.245Z,4.27
2018-07-14T18:56:52.171Z,4.77
2018-07-14T18:59:21.201Z,5.30
2018-07-14T19:02:05.567Z,5.40
2018-07-14T19:04:49.207Z,4.97
2018-07-14T19:12:49.725Z,4.40
2018-07-14T19:15:25.602Z,5.03
2018-07-14T19:18:12.455Z,4.03
2018-07-14T19:21:56.130Z,4.77
2018-07-14T19:24:49.919Z,4.10
2018-07-14T19:28:10.922Z,4.07
2018-07-14T19:30:47.094Z,3.73
2018-07-14T19:33:27.120Z,4.07
2018-07-14T19:36:39.319Z,4.07
2018-07-14T19:39:27.069Z,3.50
2018-07-14T19:42:25.315Z,4.50
2018-07-14T19:45:12.572Z,4.43
2018-07-14T19:56:23.994Z,4.63
2018-07-14T19:59:15.185Z,4.90
2018-07-14T20:02:08.465Z,5.07
2018-07-14T20:05:13.773Z,4.70
2018-07-14T20:07:55.895Z,5.10
2018-07-14T20:11:54.094Z,5.10
2018-07-14T20:14:54.914Z,5.10
2018-07-14T20:17:44.755Z,4.83
2018-07-14T20:20:24.768Z,4.37
2018-07-14T20:23:26.998Z,4.73
2018-07-14T20:29:21.812Z,4.17
2018-07-14T20:32:19.957Z,5.80
2018-07-14T20:35:10.680Z,4.10
2018-07-14T20:37:46.934Z,4.30
2018-07-14T20:41:09.037Z,4.43
2018-07-14T20:43:49.975Z,4.70
2018-07-14T20:46:34.605Z,4.80
2018-07-14T20:49:33.606Z,4.37
2018-07-14T20:58:09.292Z,5.53
2018-07-14T21:00:57.634Z,5.23
2018-07-14T21:03:40.976Z,5.93
2018-07-14T21:06:37.884Z,6.53
2018-07-14T21:09:35.654Z,5.40
2018-07-14T21:18:19.954Z,5.53
2018-07-14T21:21:03.727Z,5.27
2018-07-14T21:23:55.796Z,5.67
2018-07-14T21:26:43.848Z,4.90
2018-07-14T21:35:34.728Z,6.50
2018-07-14T21:38:35.219Z,5.60
2018-07-14T21:41:24.377Z,5.33
2018-07-14T21:44:03.290Z,6.10
2018-07-14T21:46:55.644Z,5.93
2018-07-14T21:49:47.489Z,5.90
2018-07-14T21:52:53.059Z,5.60
2018-07-14T21:55:32.172Z,4.93
2018-07-14T21:59:30.679Z,5.47
2018-07-14T22:02:39.663Z,7.07
2018-07-14T22:10:37.648Z,5.00
2018-07-14T22:17:20.040Z,4.20
2018-07-14T22:20:05.971Z,5.17
2018-07-14T22:23:22.636Z,4.93
2018-07-14T22:26:34.594Z,5.20
2018-07-14T22:29:17.755Z,5.50
2018-07-14T22:32:09.586Z,4.60
2018-07-14T22:35:00.722Z,4.80
2018-07-14T22:37:49.191Z,4.80
2018-07-14T22:43:48.686Z,4.87
2018-07-14T22:46:41.872Z,5.47
2018-07-14T22:55:43.258Z,4.80
2018-07-14T23:01:36.699Z,5.10
2018-07-14T23:04:08.249Z,5.27
2018-07-14T23:06:37.776Z,4.43
2018-07-14T23:09:25.729Z,4.23
2018-07-14T23:12:09.057Z,4.07
2018-07-14T23:14:37.880Z,4.40
2018-07-14T23:17:10.317Z,4.67
2018-07-14T23:19:48.873Z,4.63
2018-07-14T23:22:19.835Z,4.37
2018-07-14T23:24:53.385Z,4.07
2018-07-14T23:27:37.080Z,4.50
2018-07-14T23:30:13.587Z,4.00
2018-07-14T23:32:54.703Z,4.80
2018-07-14T23:35:32.289Z,4.47
2018-07-14T23:38:09.201Z,3.93
2018-07-14T23:40:43.599Z,4.10
2018-07-14T23:43:18.935Z,4.40
2018-07-14T23:45:58.697Z,3.60
2018-07-14T23:48:36.903Z,3.90
2018-07-14T23:51:15.771Z,3.97
2018-07-14T23:53:58.677Z,3.77
2018-07-14T23:56:33.881Z,3.10
2018-07-14T23:59:17.021Z,3.57
